Nearby METAR Reports

 

KIMT - Iron Mountain, Michigan, USA
Distance from station: 0 29mi, 47km
Updated: Fri, 18-Aug-2017 10:54am CDT
Mostly cloudy
Mostly cloudy
 Wind from NNW
Wind: NNW 14 mph , 22 km/h, Gust: 23 mph , 37 km/h
Temperature: 66°F , 19°C
Dew Point: 54°F , 12°C
Humidity: 64%
Barometer: 29.76 inHg , 1007.8 hPa
Clouds: Mostly cloudy
Visibility: 10 miles , 16 km
Cloud details: Partly cloudy 1900 ft
Mostly cloudy 2700 ft
2017/08/18 15:54 KIMT 181554Z AUTO 33012G20KT 10SM SCT019 BKN027 19/12 A2976 RMK AO2 SLP075 T01890122
KMNM - Menominee, Michigan, USA
Distance from station: SE 31mi, 51km
Updated: Fri, 18-Aug-2017 10:56am CDT
Overcast
Overcast
 Wind from NW
Wind: NW 10 mph , 17 km/h, Gust: 18 mph , 30 km/h
Temperature: 66°F , 19°C
Dew Point: 57°F , 14°C
Humidity: 73%
Barometer: 29.76 inHg , 1007.8 hPa
Clouds: Overcast
Visibility: 10 miles , 16 km
Cloud details: Overcast 2800 ft
2017/08/18 15:56 KMNM 181556Z AUTO 32009G16KT 10SM OVC028 19/14 A2976 RMK AO2 SLP091 T01940139 $
 
KOCQ - Oconto, Wisconsin, USA
Distance from station: SSE 38mi, 61km
Updated: Fri, 18-Aug-2017 11:15am CDT
Overcast
Overcast
 Wind from NW
Wind: NW 12 mph , 19 km/h, Gust: 18 mph , 30 km/h
Temperature: 68°F , 20°C
Dew Point: 57°F , 14°C
Humidity: 69%
Barometer: 29.77 inHg , 1008.1 hPa
Clouds: Overcast
Visibility: 10 miles , 16 km
Cloud details: Partly cloudy 2500 ft
Overcast 3100 ft
2017/08/18 16:15 KOCQ 181615Z AUTO 32010G16KT 10SM SCT025 OVC031 20/14 A2977 RMK AO1 T02000144
KEZS - Shawano Muni, Wisconsin, USA
Distance from station: SSW 48mi, 77km
Updated: Fri, 18-Aug-2017 11:15am CDT
Overcast
Overcast
 Wind from NW
Wind: NW 12 mph , 19 km/h, Gust: 17 mph , 28 km/h
Temperature: 70°F , 21°C
Dew Point: 57°F , 14°C
Humidity: 64%
Barometer: 29.80 inHg , 1009.1 hPa
Clouds: Overcast
Visibility: 10 miles , 16 km
Cloud details: Overcast 3000 ft
2017/08/18 16:15 KEZS 181615Z AUTO 31010G15KT 10SM OVC030 21/14 A2980 RMK AO2 T02110143
 
KAIG - Antigo/Langlade, Wisconsin, USA
Distance from station: WSW 51mi, 82km
Updated: Fri, 18-Aug-2017 11:15am CDT
Overcast
Overcast
 Wind from NW
Wind: NW 14 mph , 22 km/h
Temperature: 64°F , 18°C
Dew Point: 57°F , 14°C
Humidity: 78%
Barometer: 29.83 inHg , 1010.2 hPa
Clouds: Overcast
Visibility: 10 miles , 16 km
Cloud details: Overcast 2700 ft
2017/08/18 16:15 KAIG 181615Z AUTO 31012KT 10SM OVC027 18/14 A2983 RMK AO2 T01780142
KSUE - Sturgeon Bay, Wisconsin, USA
Distance from station: SE 51mi, 82km
Updated: Fri, 18-Aug-2017 10:56am CDT
Overcast
Overcast
 Wind from WNW
Wind: WNW 14 mph , 22 km/h
Temperature: 66°F , 19°C
Dew Point: 59°F , 15°C
Humidity: 78%
Barometer: 29.77 inHg , 1008.1 hPa
Clouds: Overcast
Visibility: 10 miles , 16 km
Cloud details: Overcast 2600 ft
2017/08/18 15:56 KSUE 181556Z AUTO 29012KT 10SM OVC026 19/15 A2977 RMK AO2 SLP095 T01890150
 
KESC - Escanaba, Michigan, USA
Distance from station: ENE 56mi, 90km
Updated: Fri, 18-Aug-2017 10:56am CDT
Overcast
Overcast
 Wind from NW
Wind: NW 15 mph , 24 km/h
Temperature: 64°F , 18°C
Dew Point: 57°F , 14°C
Humidity: 78%
Barometer: 29.72 inHg , 1006.4 hPa
Clouds: Overcast
Visibility: 10 miles , 16 km
Cloud details: Overcast 1900 ft
2017/08/18 15:56 KESC 181556Z AUTO 31013KT 10SM OVC019 18/14 A2972 RMK AO2 SLP081 T01830144
KCLI - Clintonville, Wisconsin, USA
Distance from station: SSW 62mi, 99km
Updated: Fri, 18-Aug-2017 11:15am CDT
Overcast
Overcast
 Wind from WNW
Wind: WNW 12 mph , 19 km/h
Temperature: 68°F , 20°C
Dew Point: 55°F , 13°C
Humidity: 64%
Barometer: 29.81 inHg , 1009.5 hPa
Clouds: Overcast
Visibility: 10 miles , 16 km
Cloud details: Overcast 2800 ft
2017/08/18 16:15 KCLI 181615Z AUTO 30010KT 260V330 10SM OVC028 20/13 A2981 RMK AO2
 
KGRB - Ashwaubenon, Wisconsin, USA
Distance from station: S 63mi, 102km
Updated: Fri, 18-Aug-2017 10:53am CDT
Overcast
Overcast
 Wind from NW
Wind: NW 13 mph , 20 km/h
Temperature: 70°F , 21°C
Dew Point: 63°F , 17°C
Humidity: 78%
Barometer: 29.79 inHg , 1008.8 hPa
Clouds: Overcast
Visibility: 10 miles , 16 km
Cloud details: Overcast 2900 ft
2017/08/18 15:53 KGRB 181553Z 31011KT 10SM OVC029 21/17 A2979 RMK AO2 SLP085 T02060167
KEGV - Eagle River, Wisconsin, USA
Distance from station: NW 66mi, 107km
Updated: Fri, 18-Aug-2017 11:15am CDT
Overcast
Overcast
 Wind from WNW
Wind: WNW 9 mph , 15 km/h
Temperature: 63°F , 17°C
Dew Point: 55°F , 13°C
Humidity: 77%
Barometer: 29.82 inHg , 1009.8 hPa
Clouds: Overcast
Visibility: 10 miles , 16 km
Cloud details: Mostly cloudy 1900 ft
Overcast 2500 ft
2017/08/18 16:15 KEGV 181615Z AUTO 29008KT 10SM BKN019 OVC025 17/13 A2982 RMK AO2 T01710126
 
KRHI - Rhinelander, Wisconsin, USA
Distance from station: WNW 68mi, 109km
Updated: Fri, 18-Aug-2017 10:53am CDT
Overcast
Overcast
 Wind from WNW
Wind: WNW 8 mph , 13 km/h
Temperature: 63°F , 17°C
Dew Point: 59°F , 15°C
Humidity: 88%
Barometer: 29.84 inHg , 1010.5 hPa
Clouds: Overcast
Visibility: 10 miles , 16 km
Cloud details: Few Clouds 1700 ft
Overcast 2700 ft
2017/08/18 15:53 KRHI 181553Z AUTO 30007KT 10SM FEW017 OVC027 17/15 A2984 RMK AO2 SLP104 T01720150
KLNL - Land O Lakes, Wisconsin, USA
Distance from station: NW 74mi, 119km
Updated: Fri, 18-Aug-2017 11:15am CDT
Mostly cloudy
Mostly cloudy
 Wind from NW
Wind: NW 10 mph , 17 km/h, Gust: 20 mph , 31 km/h
Temperature: 64°F , 18°C
Dew Point: 55°F , 13°C
Humidity: 73%
Barometer: 29.83 inHg , 1010.2 hPa
Clouds: Mostly cloudy
Visibility: 10 miles , 16 km
Cloud details: Mostly cloudy 2300 ft
Mostly cloudy 2700 ft
2017/08/18 16:15 KLNL 181615Z AUTO 32009G17KT 10SM BKN023 BKN027 18/13 A2983 RMK AO2 T01800133
 
KSAW - Gwinn/Sawyer, Michigan, USA
Distance from station: NNE 74mi, 120km
Updated: Fri, 18-Aug-2017 10:45am CDT
Overcast
Overcast
 Wind from N
Wind: N 13 mph , 20 km/h, Gust: 22 mph , 35 km/h
Temperature: 61°F , 16°C
Dew Point: 55°F , 13°C
Humidity: 83%
Barometer: 29.72 inHg , 1006.4 hPa
Clouds: Overcast
Visibility: 10 miles , 16 km
Cloud details: Overcast 1500 ft
2017/08/18 15:45 KSAW 181545Z 35011G19KT 10SM OVC015 16/13 A2972